Time;durP1;ratioP1;P1;durP2;ratioP2;P2;SDS_P1;SDS_P2;PMS_P1;PMS_P2;Temp;Humidity;BMP_temperature;BMP_pressure;BME280_temperature;BME280_humidity;BME280_pressure;Samples;Min_cycle;Max_cycle;Signal;HPM_P1;HPM_P2
2021/11/13 00:02:03;;;;;;;31.93;22.90;;;;;;;7.74;100.00;101027.69;5075192;28;20427;-35
2021/11/13 00:04:29;;;;;;;31.77;21.38;;;;;;;7.78;100.00;101038.88;5075700;28;20103;-35
2021/11/13 00:06:54;;;;;;;30.73;22.20;;;;;;;7.79;100.00;101029.75;5073785;28;20040;-36
2021/11/13 00:09:20;;;;;;;32.13;22.73;;;;;;;7.81;100.00;101027.69;5075357;28;20066;-35
2021/11/13 00:11:45;;;;;;;30.83;21.60;;;;;;;7.82;100.00;101031.22;5074741;28;20135;-35
2021/11/13 00:14:16;;;;;;;30.67;22.23;;;;;;;7.86;100.00;101024.38;5074969;28;20115;-36
2021/11/13 00:16:42;;;;;;;29.42;21.00;;;;;;;7.79;100.00;101002.00;5075420;28;20350;-35
2021/11/13 00:19:08;;;;;;;27.63;21.65;;;;;;;7.80;100.00;100991.03;5075150;28;20032;-35
2021/11/13 00:21:33;;;;;;;30.10;20.30;;;;;;;7.89;100.00;101013.19;5074827;28;20064;-35
2021/11/13 00:23:59;;;;;;;27.47;20.57;;;;;;;7.78;100.00;100985.03;5075201;28;20035;-35
2021/11/13 00:26:24;;;;;;;28.75;21.33;;;;;;;7.66;100.00;100959.75;5074767;28;20033;-35
2021/11/13 00:28:49;;;;;;;32.77;21.97;;;;;;;7.77;100.00;100977.16;5074724;28;20059;-35
2021/11/13 00:31:15;;;;;;;32.00;22.30;;;;;;;7.86;100.00;100992.91;5074635;28;20500;-35
2021/11/13 00:33:40;;;;;;;30.33;21.50;;;;;;;7.84;100.00;100984.19;5073989;28;20387;-36
2021/11/13 00:36:06;;;;;;;34.37;21.13;;;;;;;7.82;100.00;100991.66;5074420;28;20107;-35
2021/11/13 00:38:31;;;;;;;33.88;22.80;;;;;;;7.82;100.00;100993.53;5074950;28;20074;-35
2021/11/13 00:40:56;;;;;;;30.92;21.77;;;;;;;7.74;100.00;100971.16;5073483;28;20119;-35
2021/11/13 00:43:22;;;;;;;28.70;21.47;;;;;;;7.81;100.00;100981.94;5074662;28;20032;-35
2021/11/13 00:45:48;;;;;;;29.95;21.02;;;;;;;7.78;100.00;100973.44;5074463;28;20029;-36
2021/11/13 00:48:14;;;;;;;31.17;21.90;;;;;;;7.63;100.00;100952.94;5075018;28;20445;-35
2021/11/13 00:50:40;;;;;;;30.13;22.13;;;;;;;7.78;100.00;100976.13;5074173;28;20515;-35
2021/11/13 00:53:06;;;;;;;30.33;22.95;;;;;;;7.79;100.00;100973.22;5074336;28;20480;-35
2021/11/13 00:55:31;;;;;;;28.67;21.67;;;;;;;7.70;100.00;100953.75;5074066;28;20037;-35
2021/11/13 00:57:57;;;;;;;33.17;23.43;;;;;;;7.77;100.00;100972.63;5074085;28;20388;-35
2021/11/13 01:00:22;;;;;;;31.88;22.20;;;;;;;7.76;100.00;100968.28;5074808;28;20073;-35
2021/11/13 01:02:49;;;;;;;34.67;23.45;;;;;;;7.77;100.00;100969.09;5073601;28;20455;-36
2021/11/13 01:05:15;;;;;;;28.77;21.83;;;;;;;7.77;100.00;100971.78;5074032;28;20032;-35
2021/11/13 01:07:41;;;;;;;32.13;22.27;;;;;;;7.75;100.00;100959.34;5073853;28;20032;-35
2021/11/13 01:10:08;;;;;;;30.17;22.55;;;;;;;7.78;100.00;100962.66;5074300;28;20469;-35
2021/11/13 01:12:35;;;;;;;34.47;24.70;;;;;;;7.78;100.00;100958.09;5074139;28;20044;-36
2021/11/13 01:15:01;;;;;;;31.30;23.05;;;;;;;7.63;100.00;100942.19;5073685;28;20055;-35
2021/11/13 01:17:26;;;;;;;30.38;21.40;;;;;;;7.80;100.00;100961.41;5073329;28;20060;-35
2021/11/13 01:19:51;;;;;;;27.90;21.63;;;;;;;7.81;100.00;100957.69;5073616;28;20423;-35
2021/11/13 01:22:17;;;;;;;32.60;22.50;;;;;;;7.82;100.00;100964.72;5073795;28;20056;-36
2021/11/13 01:24:43;;;;;;;36.30;23.52;;;;;;;7.82;100.00;100953.97;5073601;28;20058;-35
2021/11/13 01:27:08;;;;;;;37.53;26.05;;;;;;;7.84;100.00;100951.88;5073541;28;20078;-35
2021/11/13 01:29:34;;;;;;;31.90;24.30;;;;;;;7.76;100.00;100933.28;5074175;28;20037;-35
2021/11/13 01:32:00;;;;;;;29.75;23.25;;;;;;;7.88;100.00;100945.03;5073647;28;20024;-35
2021/11/13 01:34:26;;;;;;;32.27;23.77;;;;;;;7.85;100.00;100934.69;5073344;28;20058;-35
2021/11/13 01:36:52;;;;;;;34.65;22.25;;;;;;;7.90;100.00;100934.88;5072273;28;20116;-35
2021/11/13 01:39:18;;;;;;;31.40;22.15;;;;;;;7.88;100.00;100923.50;5073621;28;20460;-35
2021/11/13 01:41:43;;;;;;;31.65;22.85;;;;;;;7.97;100.00;100927.63;5073250;28;20039;-35
2021/11/13 01:44:09;;;;;;;31.57;23.00;;;;;;;7.97;100.00;100924.94;5073499;28;20028;-36
2021/11/13 01:46:36;;;;;;;33.85;23.70;;;;;;;7.93;100.00;100912.09;5073688;28;20028;-35
2021/11/13 01:49:02;;;;;;;33.00;23.77;;;;;;;8.02;100.00;100926.16;5073451;28;20487;-36
2021/11/13 01:51:32;;;;;;;35.75;23.25;;;;;;;8.04;100.00;100926.75;5072436;28;20033;-36
2021/11/13 01:54:06;;;;;;;32.28;23.98;;;;;;;8.04;100.00;100924.06;5073736;28;20035;-36
2021/11/13 01:56:32;;;;;;;32.28;23.25;;;;;;;7.98;100.00;100907.72;5073240;28;20036;-36
2021/11/13 01:58:59;;;;;;;30.88;21.08;;;;;;;8.05;100.00;100920.34;5073863;28;20087;-36
2021/11/13 02:01:25;;;;;;;38.08;23.42;;;;;;;8.06;100.00;100912.06;5073337;28;20446;-35
2021/11/13 02:03:51;;;;;;;34.55;23.40;;;;;;;8.09;100.00;100908.91;5073401;28;20025;-36
2021/11/13 02:06:17;;;;;;;;;;;;;;;8.11;100.00;100912.25;5073738;28;20032;-35
2021/11/13 02:08:42;;;;;;;32.80;22.38;;;;;;;8.11;100.00;100904.16;5073117;28;20058;-36
2021/11/13 02:11:09;;;;;;;34.37;22.20;;;;;;;8.10;100.00;100898.97;5073324;28;20051;-35
2021/11/13 02:13:35;;;;;;;31.23;22.23;;;;;;;8.11;100.00;100892.56;5073370;28;20287;-35
2021/11/13 02:16:00;;;;;;;37.03;24.63;;;;;;;8.15;100.00;100905.41;5072574;28;20146;-36
2021/11/13 02:18:25;;;;;;;36.93;26.17;;;;;;;8.16;100.00;100907.03;5073513;28;20474;-35
2021/11/13 02:20:51;;;;;;;39.53;27.63;;;;;;;8.18;100.00;100893.34;5073408;28;20478;-35
2021/11/13 02:23:19;;;;;;;34.93;25.50;;;;;;;8.21;100.00;100898.31;5073481;28;20033;-35
2021/11/13 02:25:46;;;;;;;39.78;26.70;;;;;;;8.21;100.00;100901.84;5073393;28;20039;-36
2021/11/13 02:28:16;;;;;;;36.30;25.65;;;;;;;8.22;100.00;100895.41;5073038;28;20385;-35
2021/11/13 02:30:42;;;;;;;36.38;24.38;;;;;;;8.22;100.00;100890.03;5072485;28;20480;-36
2021/11/13 02:33:09;;;;;;;38.13;24.88;;;;;;;8.25;100.00;100884.22;5073513;28;20471;-35
2021/11/13 02:35:35;;;;;;;35.72;25.33;;;;;;;8.27;100.00;100889.38;5072490;28;20043;-35
2021/11/13 02:38:17;;;;;;;40.35;26.63;;;;;;;8.29;100.00;100895.38;5072843;28;20353;-36
2021/11/13 02:40:46;;;;;;;35.38;23.80;;;;;;;8.22;100.00;100879.25;5073277;28;20032;-36
2021/11/13 02:43:12;;;;;;;37.45;25.52;;;;;;;8.30;100.00;100891.66;5072411;28;20025;-35
2021/11/13 02:45:39;;;;;;;41.15;24.95;;;;;;;8.30;100.00;100885.44;5072957;28;20028;-35
2021/11/13 02:48:06;;;;;;;37.00;23.40;;;;;;;8.34;100.00;100890.16;5072947;28;20035;-36
2021/11/13 02:50:32;;;;;;;36.60;24.48;;;;;;;8.35;100.00;100888.31;5072715;28;20037;-36
2021/11/13 02:53:00;;;;;;;37.95;24.23;;;;;;;8.29;100.00;100871.13;5072887;28;20032;-35
2021/11/13 02:55:26;;;;;;;34.55;23.48;;;;;;;8.38;100.00;100887.91;5072084;28;20072;-35
2021/11/13 02:57:52;;;;;;;38.13;23.95;;;;;;;8.35;100.00;100881.06;5072704;28;20071;-36
2021/11/13 03:00:21;;;;;;;36.63;24.05;;;;;;;8.32;100.00;100884.16;5072264;28;20127;-36
2021/11/13 03:02:47;;;;;;;37.00;24.35;;;;;;;8.40;100.00;100886.66;5072947;28;20028;-36
2021/11/13 03:05:20;;;;;;;39.20;25.03;;;;;;;8.42;100.00;100900.72;5076105;28;20124;-35
2021/11/13 03:07:46;;;;;;;34.15;23.75;;;;;;;8.43;100.00;100885.38;5076529;28;20263;-35
2021/11/13 03:10:13;;;;;;;32.72;23.25;;;;;;;8.33;100.00;100869.66;5076892;28;20101;-35
2021/11/13 03:12:38;;;;;;;34.80;23.88;;;;;;;8.36;100.00;100881.88;5076276;28;20389;-36
2021/11/13 03:15:13;;;;;;;29.40;22.13;;;;;;;8.46;100.00;100890.34;5076779;28;20025;-35
2021/11/13 03:17:38;;;;;;;32.83;21.40;;;;;;;8.45;100.00;100889.53;5076352;28;20058;-35
2021/11/13 03:20:09;;;;;;;29.98;22.23;;;;;;;8.48;100.00;100886.38;5076347;28;20460;-35
2021/11/13 03:22:37;;;;;;;30.77;20.60;;;;;;;8.50;100.00;100891.59;5075938;28;20349;-35
2021/11/13 03:25:04;;;;;;;26.33;20.50;;;;;;;8.49;100.00;100888.06;5076199;28;20125;-39
2021/11/13 03:27:31;;;;;;;29.05;21.05;;;;;;;8.46;100.00;100888.47;5075487;28;20035;-35
2021/11/13 03:29:57;;;;;;;27.60;20.00;;;;;;;8.52;100.00;100884.91;5076179;28;20040;-36
2021/11/13 03:32:22;;;;;;;26.80;19.90;;;;;;;8.52;100.00;100890.31;5075448;28;20020;-37
2021/11/13 03:34:48;;;;;;;25.10;18.70;;;;;;;8.52;100.00;100893.00;5075733;28;20464;-35
2021/11/13 03:37:14;;;;;;;25.73;19.70;;;;;;;8.49;100.00;100881.81;5075428;28;20043;-36
2021/11/13 03:39:39;;;;;;;26.58;19.85;;;;;;;8.41;100.00;100863.22;5075297;28;20028;-36
2021/11/13 03:42:05;;;;;;;26.47;19.80;;;;;;;8.47;100.00;100865.06;5076003;28;20064;-35
2021/11/13 03:44:30;;;;;;;27.38;19.85;;;;;;;8.47;100.00;100859.66;5075604;28;20032;-36
2021/11/13 03:46:56;;;;;;;28.00;19.53;;;;;;;8.49;100.00;100871.88;5075430;28;20483;-35
2021/11/13 03:49:21;;;;;;;24.80;18.27;;;;;;;8.50;100.00;100867.31;5075555;28;20487;-35
2021/11/13 03:51:46;;;;;;;27.60;20.43;;;;;;;8.58;100.00;100875.13;5075907;28;20024;-36
2021/11/13 03:54:12;;;;;;;25.17;18.33;;;;;;;8.59;100.00;100874.13;5075656;28;20447;-35
2021/11/13 03:56:37;;;;;;;25.30;19.20;;;;;;;8.60;100.00;100872.25;5075117;28;20434;-35
2021/11/13 03:59:05;;;;;;;24.80;20.10;;;;;;;8.60;100.00;100864.97;5075815;28;20024;-36
2021/11/13 04:01:32;;;;;;;24.67;19.23;;;;;;;8.62;100.00;100865.56;5075133;28;20029;-36
2021/11/13 04:03:57;;;;;;;21.67;17.27;;;;;;;8.54;100.00;100862.31;5074938;28;20079;-35
2021/11/13 04:06:23;;;;;;;23.87;18.83;;;;;;;8.50;100.00;100851.16;5075188;28;20024;-36
2021/11/13 04:08:48;;;;;;;23.37;17.63;;;;;;;8.54;100.00;100859.59;5075458;28;20074;-35
2021/11/13 04:11:13;;;;;;;23.17;17.67;;;;;;;8.62;100.00;100875.53;5075015;28;20021;-36
2021/11/13 04:13:38;;;;;;;21.17;17.93;;;;;;;8.63;100.00;100874.47;5074914;28;20044;-36
2021/11/13 04:16:05;;;;;;;22.93;17.53;;;;;;;8.65;100.00;100880.50;5074630;28;20025;-36
2021/11/13 04:18:30;;;;;;;24.20;17.92;;;;;;;8.58;100.00;100868.91;5075198;28;20025;-35
2021/11/13 04:20:55;;;;;;;21.30;17.53;;;;;;;8.66;100.00;100874.88;5074836;28;20050;-36
2021/11/13 04:23:20;;;;;;;23.10;17.17;;;;;;;8.67;100.00;100884.63;5074952;28;20028;-36
2021/11/13 04:25:46;;;;;;;20.00;16.43;;;;;;;8.58;100.00;100867.03;5074557;28;20392;-36
2021/11/13 04:28:11;;;;;;;21.50;18.50;;;;;;;8.68;100.00;100877.34;5075400;28;20062;-35
2021/11/13 04:30:37;;;;;;;22.90;16.90;;;;;;;8.69;100.00;100879.84;5074453;28;20032;-36
2021/11/13 04:33:02;;;;;;;20.77;16.35;;;;;;;8.70;100.00;100875.28;5074457;28;20032;-35
2021/11/13 04:37:58;;;;;;;22.15;16.45;;;;;;;8.71;100.00;100869.66;5074612;28;20037;-35
2021/11/13 04:40:28;;;;;;;22.55;17.52;;;;;;;8.64;100.00;100860.00;5075215;28;20047;-35
2021/11/13 04:42:54;;;;;;;19.88;16.98;;;;;;;8.74;100.00;100879.19;5074987;28;20111;-36
2021/11/13 04:45:20;;;;;;;19.80;17.08;;;;;;;8.76;100.00;100885.19;5074458;28;20110;-36
2021/11/13 04:47:46;;;;;;;21.35;17.00;;;;;;;8.75;100.00;100878.97;5074303;28;20033;-35
2021/11/13 04:50:16;;;;;;;23.90;18.13;;;;;;;8.77;100.00;100876.06;5074316;28;20395;-36
2021/11/13 04:52:41;;;;;;;23.00;18.95;;;;;;;8.67;100.00;100862.22;5074513;28;20108;-36
2021/11/13 04:55:08;;;;;;;21.52;17.88;;;;;;;8.79;100.00;100889.34;5074293;28;20453;-35
2021/11/13 04:57:33;;;;;;;21.35;17.10;;;;;;;8.76;100.00;100891.41;5074031;28;20026;-35
2021/11/13 04:59:59;;;;;;;20.50;17.50;;;;;;;8.78;100.00;100888.47;5074070;28;20025;-35
2021/11/13 05:02:24;;;;;;;21.33;17.38;;;;;;;8.78;100.00;100888.47;5074366;28;20060;-35
2021/11/13 05:04:54;;;;;;;25.17;19.00;;;;;;;8.81;100.00;100887.22;5074052;28;20448;-41
2021/11/13 05:07:22;;;;;;;22.27;18.60;;;;;;;8.70;100.00;100872.59;5073552;28;20032;-36
2021/11/13 05:09:47;;;;;;;25.08;18.42;;;;;;;8.80;100.00;100897.19;5073824;28;20078;-35
2021/11/13 05:12:13;;;;;;;22.63;18.15;;;;;;;8.73;100.00;100886.44;5073932;28;20052;-36
2021/11/13 05:14:38;;;;;;;27.30;19.20;;;;;;;8.82;100.00;100905.06;5073742;28;20120;-36
2021/11/13 05:17:03;;;;;;;26.43;18.53;;;;;;;8.82;100.00;100911.28;5073805;28;20028;-36
2021/11/13 05:19:29;;;;;;;28.70;20.80;;;;;;;8.82;100.00;100908.56;5074511;28;20055;-36
2021/11/13 05:21:54;;;;;;;25.40;18.53;;;;;;;8.83;100.00;100902.13;5073425;28;20176;-35
2021/11/13 05:24:20;;;;;;;22.17;19.03;;;;;;;8.84;100.00;100909.19;5073919;28;20029;-36
2021/11/13 05:26:45;;;;;;;25.50;20.17;;;;;;;8.85;100.00;100912.72;5072635;28;20036;-35
2021/11/13 05:29:10;;;;;;;26.33;20.17;;;;;;;8.86;100.00;100912.50;5074098;28;20021;-36
2021/11/13 05:31:35;;;;;;;26.53;20.93;;;;;;;8.80;100.00;100901.75;5073715;28;20024;-35
2021/11/13 05:34:01;;;;;;;26.70;20.60;;;;;;;8.86;100.00;100912.50;5074009;28;20028;-35
2021/11/13 05:36:26;;;;;;;26.13;20.93;;;;;;;8.86;100.00;100917.88;5073172;28;20028;-36
2021/11/13 05:38:51;;;;;;;30.50;21.07;;;;;;;8.85;100.00;100916.25;5073798;28;20109;-36
2021/11/13 05:41:17;;;;;;;26.90;21.10;;;;;;;8.89;100.00;100928.25;5073372;28;20077;-36
2021/11/13 05:43:42;;;;;;;27.23;21.37;;;;;;;8.89;100.00;100922.84;5073151;28;20024;-35
2021/11/13 05:46:07;;;;;;;30.20;20.97;;;;;;;8.90;100.00;100923.69;5073318;28;20028;-35
2021/11/13 05:48:33;;;;;;;30.17;21.37;;;;;;;8.86;100.00;100917.06;5074111;28;20043;-35
2021/11/13 05:50:58;;;;;;;28.00;20.73;;;;;;;8.85;100.00;100921.63;5073061;28;20522;-36
2021/11/13 05:53:24;;;;;;;25.53;20.27;;;;;;;8.92;100.00;100922.41;5073566;28;20029;-35
2021/11/13 05:55:49;;;;;;;24.27;20.17;;;;;;;8.90;100.00;100916.41;5073121;28;20388;-36
2021/11/13 05:58:18;;;;;;;28.03;20.60;;;;;;;8.90;100.00;100918.28;5072931;28;20108;-36
2021/11/13 06:00:43;;;;;;;27.52;20.67;;;;;;;8.82;100.00;100900.50;5073041;28;20028;-36
2021/11/13 06:03:09;;;;;;;27.30;20.07;;;;;;;8.89;100.00;100914.78;5073953;28;20055;-36
2021/11/13 06:05:34;;;;;;;24.00;18.97;;;;;;;8.82;100.00;100911.28;5073351;28;20032;-36
2021/11/13 06:07:59;;;;;;;25.90;20.37;;;;;;;8.89;100.00;100920.16;5072847;28;20059;-36
2021/11/13 06:10:25;;;;;;;24.70;18.80;;;;;;;8.88;100.00;100932.00;5073298;28;20063;-36
2021/11/13 06:12:50;;;;;;;27.73;19.67;;;;;;;8.89;100.00;100930.94;5072798;28;20070;-35
2021/11/13 06:15:16;;;;;;;26.33;18.87;;;;;;;8.68;100.00;100898.91;5073132;28;20052;-36
2021/11/13 06:17:41;;;;;;;26.90;19.48;;;;;;;8.91;100.00;100933.41;5073137;28;20052;-36
2021/11/13 06:20:09;;;;;;;26.40;19.40;;;;;;;8.92;100.00;100935.06;5073640;28;20487;-35
2021/11/13 06:22:34;;;;;;;24.92;20.73;;;;;;;8.91;100.00;100933.41;5072500;28;20020;-35
2021/11/13 06:25:00;;;;;;;26.67;18.92;;;;;;;8.92;100.00;100938.59;5073071;28;20074;-36
2021/11/13 06:27:25;;;;;;;25.10;20.47;;;;;;;8.94;100.00;100943.78;5073534;28;20040;-36
2021/11/13 06:29:51;;;;;;;25.00;19.17;;;;;;;8.93;100.00;100947.50;5073038;28;20024;-36
2021/11/13 06:32:17;;;;;;;26.83;19.42;;;;;;;8.93;100.00;100956.44;5072810;28;20047;-35
2021/11/13 06:34:42;;;;;;;23.23;18.55;;;;;;;8.94;100.00;100965.34;5072986;28;20024;-36
2021/11/13 06:37:09;;;;;;;24.45;18.92;;;;;;;8.94;100.00;100966.19;5072865;28;20021;-36
2021/11/13 06:39:35;;;;;;;25.35;17.60;;;;;;;8.93;100.00;100960.97;5076819;28;20340;-36
2021/11/13 06:42:02;;;;;;;24.42;19.40;;;;;;;8.95;100.00;100962.44;5076725;28;20063;-36
2021/11/13 06:44:28;;;;;;;27.27;18.83;;;;;;;8.96;100.00;100964.09;5077074;28;20063;-36
2021/11/13 06:46:53;;;;;;;26.40;19.25;;;;;;;8.95;100.00;100959.75;5076322;28;20056;-36
2021/11/13 06:49:19;;;;;;;27.33;19.85;;;;;;;8.96;100.00;100960.56;5076880;28;20107;-35
2021/11/13 06:51:45;;;;;;;30.27;20.73;;;;;;;8.98;100.00;100958.50;5076650;28;20062;-36
2021/11/13 06:54:12;;;;;;;26.20;20.88;;;;;;;8.74;100.00;100919.63;5076237;28;20476;-35
2021/11/13 06:56:37;;;;;;;28.35;19.30;;;;;;;8.87;100.00;100949.19;5076322;28;20384;-36
2021/11/13 06:59:03;;;;;;;25.92;20.23;;;;;;;8.97;100.00;100963.03;5076414;28;20123;-35
2021/11/13 07:01:28;;;;;;;29.47;20.73;;;;;;;8.96;100.00;100961.38;5076392;28;20093;-35
2021/11/13 07:03:53;;;;;;;27.07;20.40;;;;;;;8.98;100.00;100967.41;5077178;28;20047;-35
2021/11/13 07:06:19;;;;;;;26.47;20.37;;;;;;;8.84;100.00;100946.13;5076067;28;20086;-35
2021/11/13 07:08:44;;;;;;;29.17;20.53;;;;;;;9.00;100.00;100976.09;5076732;28;20036;-36
2021/11/13 07:11:10;;;;;;;27.02;20.15;;;;;;;8.97;100.00;100981.91;5076593;28;20123;-36
2021/11/13 07:13:35;;;;;;;27.60;21.33;;;;;;;9.00;100.00;100986.88;5075691;28;20079;-36
2021/11/13 07:16:01;;;;;;;27.73;21.17;;;;;;;8.95;100.00;100977.78;5076605;28;20067;-35
2021/11/13 07:18:26;;;;;;;31.60;20.38;;;;;;;9.02;100.00;100998.28;5075873;28;20024;-36
2021/11/13 07:20:58;;;;;;;28.77;20.73;;;;;;;8.92;100.00;100987.13;5076572;28;20035;-36
2021/11/13 07:23:23;;;;;;;28.95;21.60;;;;;;;9.05;100.00;101005.13;5075688;28;20032;-36
2021/11/13 07:25:50;;;;;;;26.42;20.38;;;;;;;9.03;100.00;101004.53;5075888;28;20413;-36
2021/11/13 07:28:16;;;;;;;;;;;;;;;9.08;100.00;101006.53;5076424;28;20032;-35
2021/11/13 07:30:44;;;;;;;31.92;20.15;;;;;;;8.99;100.00;100998.72;5075975;28;19908;-36
2021/11/13 07:33:11;;;;;;;31.25;22.05;;;;;;;9.09;100.00;101009.03;5076555;28;20028;-35
2021/11/13 07:35:37;;;;;;;33.83;22.90;;;;;;;9.11;100.00;101017.72;5075810;28;20033;-35
2021/11/13 07:38:03;;;;;;;;;;;;;;;9.15;100.00;101018.13;5076505;28;20115;-35
2021/11/13 07:40:28;;;;;;;33.13;22.55;;;;;;;9.16;100.00;101026.00;5075999;28;20335;-36
2021/11/13 07:42:54;;;;;;;32.90;22.65;;;;;;;9.18;100.00;101028.50;5075818;28;20380;-35
2021/11/13 07:45:19;;;;;;;31.73;22.90;;;;;;;9.13;100.00;101020.22;5075988;28;20028;-35
2021/11/13 07:47:45;;;;;;;33.03;21.83;;;;;;;9.14;100.00;101024.56;5076336;28;20115;-36
2021/11/13 07:50:12;;;;;;;33.28;23.92;;;;;;;9.19;100.00;101032.84;5075056;28;20039;-36
2021/11/13 07:52:38;;;;;;;34.85;24.08;;;;;;;9.28;100.00;101045.03;5075582;28;20036;-35
2021/11/13 07:55:04;;;;;;;36.03;23.35;;;;;;;9.23;100.00;101034.91;5075723;28;20452;-35
2021/11/13 07:57:29;;;;;;;36.58;22.85;;;;;;;9.13;100.00;101015.66;5075538;28;20028;-36
2021/11/13 07:59:55;;;;;;;35.03;22.97;;;;;;;9.36;100.00;101046.63;5076106;28;20486;-36
2021/11/13 08:02:20;;;;;;;31.53;23.03;;;;;;;9.35;100.00;101039.59;5075560;28;20099;-36
2021/11/13 08:04:46;;;;;;;34.95;23.67;;;;;;;9.29;100.00;101025.09;5075980;28;20033;-36
2021/11/13 08:07:11;;;;;;;35.27;22.87;;;;;;;9.40;100.00;101048.69;5075404;28;20078;-36
2021/11/13 08:09:36;;;;;;;30.53;23.60;;;;;;;9.40;100.00;101040.59;5075183;28;20476;-35
2021/11/13 08:12:02;;;;;;;28.33;22.50;;;;;;;9.44;100.00;101057.19;5075287;28;20056;-36
2021/11/13 08:14:28;;;;;;;34.75;22.55;;;;;;;9.45;100.00;101045.31;5074757;28;20036;-36
2021/11/13 08:16:53;;;;;;;38.80;24.35;;;;;;;9.37;100.00;101032.94;5075017;28;20029;-35
2021/11/13 08:19:18;;;;;;;35.37;23.70;;;;;;;9.49;100.00;101051.94;5074815;28;20028;-35
2021/11/13 08:21:44;;;;;;;35.13;23.87;;;;;;;9.46;100.00;101044.28;5075288;28;20186;-36
2021/11/13 08:24:09;;;;;;;35.78;22.85;;;;;;;9.53;100.00;101050.47;5074984;28;20024;-36
2021/11/13 08:26:35;;;;;;;35.13;22.83;;;;;;;9.48;100.00;101043.03;5074921;28;20040;-36
2021/11/13 08:29:00;;;;;;;31.93;22.50;;;;;;;9.58;100.00;101057.91;5075428;28;20029;-36
2021/11/13 08:31:26;;;;;;;29.40;22.03;;;;;;;9.55;100.00;101060.00;5074763;28;20798;-36
2021/11/13 08:33:51;;;;;;;30.23;21.03;;;;;;;9.58;100.00;101064.13;5075631;28;20024;-36
2021/11/13 08:36:16;;;;;;;30.07;21.60;;;;;;;9.58;100.00;101063.31;5074609;28;20064;-36
2021/11/13 08:38:42;;;;;;;32.30;20.53;;;;;;;9.50;100.00;101048.19;5075016;28;20131;-36
2021/11/13 08:41:08;;;;;;;30.33;21.63;;;;;;;9.52;100.00;101051.53;5075261;28;20039;-36
2021/11/13 08:43:33;;;;;;;29.10;20.00;;;;;;;9.60;100.00;101063.91;5074892;28;20036;-36
2021/11/13 08:45:59;;;;;;;34.17;20.80;;;;;;;9.59;100.00;101068.47;5073268;28;20028;-36
2021/11/13 08:48:24;;;;;;;40.15;21.48;;;;;;;9.60;100.00;101066.59;5074214;28;20269;-35
2021/11/13 08:50:50;;;;;;;31.33;20.07;;;;;;;9.58;100.00;101060.63;5074402;28;20028;-36
2021/11/13 08:53:16;;;;;;;32.95;21.05;;;;;;;9.50;100.00;101054.41;5074609;28;20029;-36
2021/11/13 08:55:43;;;;;;;32.05;20.65;;;;;;;9.60;100.00;101067.44;5073891;28;20127;-36
2021/11/13 08:58:09;;;;;;;31.38;20.98;;;;;;;9.62;100.00;101068.06;5074012;28;20333;-36
2021/11/13 09:00:49;;;;;;;29.30;20.85;;;;;;;9.65;100.00;101072.19;5073890;28;20025;-36
2021/11/13 09:03:28;;;;;;;34.92;21.17;;;;;;;9.68;100.00;101077.97;5074326;28;20042;-35
2021/11/13 09:05:55;;;;;;;32.53;22.35;;;;;;;9.72;100.00;101089.16;5074184;28;20491;-36
2021/11/13 09:08:22;;;;;;;32.55;22.88;;;;;;;9.70;100.00;101064.25;5074267;28;20032;-36
2021/11/13 09:10:49;;;;;;;33.22;21.88;;;;;;;9.80;100.00;101073.50;5073882;28;20124;-36
2021/11/13 09:13:16;;;;;;;29.17;21.08;;;;;;;9.86;100.00;101081.78;5075071;28;20047;-35
2021/11/13 09:15:42;;;;;;;29.30;21.85;;;;;;;9.88;100.00;101080.50;5073791;28;20028;-36
2021/11/13 09:18:08;;;;;;;35.22;22.27;;;;;;;9.92;100.00;101083.63;5073550;28;20480;-36
2021/11/13 09:20:35;;;;;;;;;;;;;;;9.96;100.00;101077.53;5074900;28;20127;-35
2021/11/13 09:23:02;;;;;;;27.35;21.08;;;;;;;9.93;100.00;101085.25;5073472;28;20050;-36
2021/11/13 09:25:27;;;;;;;34.03;21.67;;;;;;;9.88;100.00;101072.41;5073652;28;20103;-36
2021/11/13 09:27:53;;;;;;;27.47;20.83;;;;;;;9.97;100.00;101087.31;5074288;28;20413;-36
2021/11/13 09:30:23;;;;;;;29.92;20.58;;;;;;;10.01;100.00;101093.09;5073877;28;20059;-35
2021/11/13 09:32:49;;;;;;;29.95;20.48;;;;;;;10.03;100.00;101093.69;5073652;28;20028;-36
2021/11/13 09:35:16;;;;;;;31.90;20.30;;;;;;;9.97;100.00;101084.59;5073303;28;20037;-35
2021/11/13 09:37:44;;;;;;;25.83;18.17;;;;;;;10.12;100.00;101099.66;5073443;28;20035;-36
2021/11/13 09:40:10;;;;;;;26.08;19.45;;;;;;;10.13;100.00;101098.59;5073769;28;20028;-36
2021/11/13 09:42:36;;;;;;;31.85;21.38;;;;;;;10.05;100.00;101083.47;5073302;28;20025;-36
2021/11/13 09:45:05;;;;;;;28.00;20.05;;;;;;;10.15;100.00;101088.38;5073630;28;20028;-36
2021/11/13 09:47:30;;;;;;;25.42;19.25;;;;;;;10.22;100.00;101100.78;5073370;28;20134;-36
2021/11/13 09:49:58;;;;;;;27.48;20.20;;;;;;;10.25;100.00;101088.75;5074066;28;20085;-36
2021/11/13 09:52:23;;;;;;;29.70;19.73;;;;;;;10.34;100.00;101106.31;5073253;28;20028;-36
2021/11/13 09:54:48;;;;;;;28.50;18.80;;;;;;;10.39;100.00;101101.06;5073719;28;20066;-35
2021/11/13 09:57:14;;;;;;;31.27;21.93;;;;;;;10.33;100.00;101091.16;5073292;28;20278;-35
2021/11/13 09:59:39;;;;;;;34.42;25.30;;;;;;;10.42;100.00;101111.44;5073246;28;20024;-35
2021/11/13 10:02:05;;;;;;;36.27;26.40;;;;;;;10.48;100.00;101115.94;5072875;28;20028;-36
2021/11/13 10:04:31;;;;;;;23.02;18.98;;;;;;;10.50;100.00;101113.84;5073474;28;20036;-36
2021/11/13 10:06:57;;;;;;;20.77;16.77;;;;;;;10.45;100.00;101105.59;5073305;28;20039;-35
2021/11/13 10:09:23;;;;;;;20.05;15.57;;;;;;;10.57;100.00;101120.00;5073193;28;20259;-36
2021/11/13 10:11:52;;;;;;;24.08;15.70;;;;;;;10.52;100.00;101106.34;5073111;28;20123;-36
2021/11/13 10:14:38;;;;;;;18.05;14.90;;;;;;;10.63;100.00;101117.47;5073285;28;20104;-36
2021/11/13 10:17:21;;;;;;;21.40;15.07;;;;;;;10.62;100.00;101121.22;5088049;28;20407;-36
2021/11/13 10:19:47;;;;;;;21.73;15.13;;;;;;;10.69;100.00;101128.22;5053039;28;20029;-36
2021/11/13 10:22:12;;;;;;;23.23;17.20;;;;;;;10.68;100.00;101131.13;5052915;28;20028;-36
2021/11/13 10:24:48;;;;;;;22.63;16.17;;;;;;;10.70;100.00;101124.47;5066491;28;20090;-36
2021/11/13 10:27:13;;;;;;;20.83;16.75;;;;;;;10.75;100.00;101138.13;5090337;28;20369;-35
2021/11/13 10:29:41;;;;;;;19.60;15.48;;;;;;;10.72;100.00;101126.94;5093051;28;20476;-36
2021/11/13 10:32:14;;;;;;;21.25;16.52;;;;;;;10.83;100.00;101140.56;5092688;28;20035;-36
2021/11/13 10:34:44;;;;;;;20.10;16.40;;;;;;;10.86;100.00;101141.16;5092249;28;20378;-36
2021/11/13 10:37:15;;;;;;;19.08;15.82;;;;;;;10.88;100.00;101139.84;5092644;28;20113;-35
2021/11/13 10:39:44;;;;;;;19.63;15.70;;;;;;;10.91;100.00;101139.41;5093344;28;20101;-36
2021/11/13 10:42:13;;;;;;;19.30;15.18;;;;;;;10.95;100.00;101142.50;5093173;28;20372;-36
2021/11/13 10:44:52;;;;;;;19.50;16.02;;;;;;;11.02;100.00;101144.06;5092671;28;20024;-36
2021/11/13 10:47:19;;;;;;;20.10;16.52;;;;;;;11.07;100.00;101148.78;5093152;28;20079;-36
2021/11/13 10:49:46;;;;;;;19.25;15.40;;;;;;;11.13;100.00;101147.91;5093473;28;20028;-36
2021/11/13 10:52:12;;;;;;;20.85;15.40;;;;;;;11.08;100.00;101128.81;5092540;28;20468;-36
2021/11/13 10:54:43;;;;;;;18.27;15.18;;;;;;;11.23;100.00;101145.50;5093355;28;20107;-36
2021/11/13 10:57:09;;;;;;;22.50;16.67;;;;;;;11.31;100.00;101152.44;5093423;28;20107;-36
2021/11/13 10:59:43;;;;;;;26.63;16.40;;;;;;;11.29;100.00;101144.56;5093395;28;20032;-35
2021/11/13 11:02:14;;;;;;;20.50;16.15;;;;;;;11.22;100.00;101130.28;5092798;28;20078;-35
2021/11/13 11:04:41;;;;;;;19.17;15.07;;;;;;;11.22;100.00;101127.56;5092744;28;20028;-36
2021/11/13 11:07:12;;;;;;;20.08;15.82;;;;;;;11.29;100.00;101136.44;5092962;28;20024;-36
2021/11/13 11:09:40;;;;;;;19.17;14.98;;;;;;;11.27;100.00;101140.41;5092986;28;20112;-36